Time;durP1;ratioP1;P1;durP2;ratioP2;P2;SDS_P1;SDS_P2;PMS_P1;PMS_P2;Temp;Humidity;BMP_temperature;BMP_pressure;BME280_temperature;BME280_humidity;BME280_pressure;Samples;Min_cycle;Max_cycle;Signal;HPM_P1;HPM_P2
2022/08/24 00:01:31;;;;;;;;;;;;;;;20.45;69.09;100661.84;5019875;22;1875;-85
2022/08/24 00:03:56;;;;;;;;;;;;;;;20.39;69.58;100661.25;4987392;28;1508;-85
2022/08/24 00:06:22;;;;;;;;;;;;;;;20.34;70.18;100664.25;5001252;28;1422;-85
2022/08/24 00:08:48;;;;;;;;;;;;;;;20.35;69.36;100654.75;4980271;28;1531;-85
2022/08/24 00:11:14;;;;;;;;;;;;;;;20.51;69.11;100658.50;4974348;28;1595;-85
2022/08/24 00:13:40;;;;;;;;;;;;;;;20.42;69.08;100663.34;4994328;28;1280;-85
2022/08/24 00:16:06;;;;;;;;;;;;;;;20.24;70.91;100662.69;5002537;28;1230;-85
2022/08/24 00:18:32;;;;;;;;;;;;;;;20.29;70.49;100662.47;5002144;28;1590;-85
2022/08/24 00:20:57;;;;;;;;;;;;;;;20.11;70.94;100662.97;4980501;28;1396;-85
2022/08/24 00:23:22;;;;;;;;;;;;;;;20.15;70.71;100672.25;4998136;28;1878;-84
2022/08/24 00:25:47;;;;;;;;;;;;;;;20.23;70.33;100674.97;4983527;28;1439;-85
2022/08/24 00:28:12;;;;;;;;;;;;;;;20.32;69.70;100672.91;4974716;28;1644;-85
2022/08/24 00:30:38;;;;;;;;;;;;;;;20.34;70.34;100684.50;4968853;28;1748;-85
2022/08/24 00:33:03;;;;;;;;;;;;;;;20.22;70.68;100672.50;4977678;28;1392;-85
2022/08/24 00:35:29;;;;;;;;;;;;;;;20.16;70.90;100669.09;4985884;28;1242;-85
2022/08/24 00:37:54;;;;;;;;;;;;;;;20.08;71.19;100670.00;4982347;28;1642;-85
2022/08/24 00:40:28;;;;;;;;;;;;;;;20.30;69.98;100674.41;4967833;28;1426;-85
2022/08/24 00:42:54;;;;;;;;;;;;;;;20.33;70.33;100677.28;4989629;28;1891;-85
2022/08/24 00:45:19;;;;;;;;;;;;;;;20.21;71.35;100673.66;4966018;28;1652;-85
2022/08/24 00:47:50;;;;;;;;;;;;;;;20.07;71.73;100671.19;4965416;28;1324;-85
2022/08/24 00:50:18;;;;;;;;;;;;;;;20.21;71.32;100676.44;4983862;28;1588;-85
2022/08/24 00:52:49;;;;;;;;;;;;;;;20.22;71.13;100672.50;4975528;28;1418;-85
2022/08/24 00:55:20;;;;;;;;;;;;;;;20.30;70.76;100663.28;4993677;28;1306;-86
2022/08/24 00:57:47;;;;;;;;;;;;;;;20.43;71.28;100669.72;4982089;28;1586;-85
2022/08/24 01:00:14;;;;;;;;;;;;;;;20.35;71.96;100672.25;4972168;28;1433;-85
2022/08/24 01:02:43;;;;;;;;;;;;;;;20.05;73.56;100667.09;4963533;28;1972;-85
2022/08/24 01:05:09;;;;;;;;;;;;;;;20.07;72.92;100660.06;4967463;28;788;-85
2022/08/24 01:07:34;;;;;;;;;;;;;;;19.99;73.22;100658.97;4991681;28;1611;-85
2022/08/24 01:10:02;;;;;;;;;;;;;;;20.00;72.72;100663.38;4986242;28;1621;-85
2022/08/24 01:12:30;;;;;;;;;;;;;;;20.07;72.67;100660.06;4969370;28;1466;-85
2022/08/24 01:14:56;;;;;;;;;;;;;;;20.09;72.53;100668.84;4972114;28;1305;-86
2022/08/24 01:20:07;;;;;;;;;;;;;;;19.90;73.73;100669.34;4989917;28;1154;-85
2022/08/24 01:22:49;;;;;;;;;;;;;;;19.86;74.07;100671.19;4989250;28;1891;-85
2022/08/24 01:25:14;;;;;;;;;;;;;;;19.83;74.22;100666.28;4981993;28;1263;-85
2022/08/24 01:27:40;;;;;;;;;;;;;;;19.84;74.36;100667.09;4970952;28;1500;-85
2022/08/24 01:30:08;;;;;;;;;;;;;;;19.58;75.45;100667.28;4982581;28;1468;-84
2022/08/24 01:32:33;;;;;;;;;;;;;;;19.75;74.52;100667.16;4978882;28;1696;-85
2022/08/24 01:34:59;;;;;;;;;;;;;;;19.77;75.51;100669.59;4966153;28;1128;-85
2022/08/24 01:37:24;;;;;;;;;;;;;;;19.64;75.40;100668.72;4971355;28;1632;-85
2022/08/24 01:39:50;;;;;;;;;;;;;;;19.58;74.50;100670.06;4979371;28;1271;-85
2022/08/24 01:42:16;;;;;;;;;;;;;;;19.62;75.61;100665.47;4972562;28;1953;-85
2022/08/24 01:44:43;;;;;;;;;;;;;;;19.57;75.20;100671.19;4988613;28;1110;-85
2022/08/24 01:47:10;;;;;;;;;;;;;;;19.65;75.04;100675.88;4974914;28;1754;-85
2022/08/24 01:49:38;;;;;;;;;;;;;;;19.75;74.27;100678.28;4986692;28;1323;-85
2022/08/24 01:52:05;;;;;;;;;;;;;;;19.54;74.71;100680.22;4972591;28;1439;-86
2022/08/24 01:54:30;;;;;;;;;;;;;;;19.44;75.89;100686.94;4962121;28;1700;-85
2022/08/24 01:56:56;;;;;;;;;;;;;;;19.45;76.01;100688.56;4969179;28;1735;-85
2022/08/24 01:59:21;;;;;;;;;;;;;;;19.46;76.98;100683.84;4985400;28;1071;-84
2022/08/24 02:01:48;;;;;;;;;;;;;;;19.60;76.12;100676.91;4976663;28;1966;-85
2022/08/24 02:04:14;;;;;;;;;;;;;;;19.53;76.88;100679.41;4969570;28;1361;-85
2022/08/24 02:06:39;;;;;;;;;;;;;;;19.51;76.21;100689.22;4972561;28;1422;-85
2022/08/24 02:09:05;;;;;;;;;;;;;;;19.33;76.18;100684.88;4977288;28;1311;-85
2022/08/24 02:11:31;;;;;;;;;;;;;;;19.33;76.51;100676.53;4958300;28;1276;-85
2022/08/24 02:13:56;;;;;;;;;;;;;;;19.29;76.09;100690.31;4958579;28;1698;-85
2022/08/24 02:16:22;;;;;;;;;;;;;;;19.40;76.02;100696.25;4962286;28;1350;-85
2022/08/24 02:18:47;;;;;;;;;;;;;;;19.44;75.97;100703.59;4990032;28;1468;-85
2022/08/24 02:21:13;;;;;;;;;;;;;;;19.17;77.05;100702.09;4962810;28;1445;-85
2022/08/24 02:23:39;;;;;;;;;;;;;;;19.27;77.01;100695.38;4964832;28;1871;-85
2022/08/24 02:26:05;;;;;;;;;;;;;;;19.00;77.58;100704.94;4962839;28;1791;-85
2022/08/24 02:28:31;;;;;;;;;;;;;;;18.86;78.28;100707.94;4989046;28;1548;-85
2022/08/24 02:30:56;;;;;;;;;;;;;;;18.87;77.88;100711.53;4995785;28;1788;-85
2022/08/24 02:33:25;;;;;;;;;;;;;;;18.99;76.96;100710.81;4982144;28;1317;-85
2022/08/24 02:35:50;;;;;;;;;;;;;;;19.11;77.30;100702.63;4984232;28;1689;-85
2022/08/24 02:38:16;;;;;;;;;;;;;;;18.81;77.95;100707.28;4986830;28;1459;-85
2022/08/24 02:40:42;;;;;;;;;;;;;;;18.92;76.84;100705.78;4988610;28;1832;-85
2022/08/24 02:43:07;;;;;;;;;;;;;;;18.81;78.25;100699.78;4983547;28;1898;-85
2022/08/24 02:45:36;;;;;;;;;;;;;;;18.85;78.20;100708.25;4986240;28;1723;-85
2022/08/24 02:48:01;;;;;;;;;;;;;;;18.69;78.50;100712.72;4981736;28;1416;-85
2022/08/24 02:50:26;;;;;;;;;;;;;;;18.59;78.88;100708.31;4980309;28;1361;-85
2022/08/24 02:52:53;;;;;;;;;;;;;;;18.75;77.64;100708.59;4967815;28;1171;-85
2022/08/24 02:55:18;;;;;;;;;;;;;;;18.49;77.92;100706.66;4977253;28;1384;-85
2022/08/24 02:57:43;;;;;;;;;;;;;;;18.66;77.34;100705.03;4990621;28;1689;-84
2022/08/24 03:00:11;;;;;;;;;;;;;;;18.47;78.13;100716.44;4995176;28;1398;-85
2022/08/24 03:02:36;;;;;;;;;;;;;;;18.64;77.15;100704.53;4970148;28;1999;-85
2022/08/24 03:05:02;;;;;;;;;;;;;;;18.45;77.76;100710.44;4973319;28;1773;-85
2022/08/24 03:07:27;;;;;;;;;;;;;;;18.39;78.01;100718.09;4989327;28;1338;-85
2022/08/24 03:09:52;;;;;;;;;;;;;;;18.53;78.36;100713.19;4994488;28;1461;-85
2022/08/24 03:12:17;;;;;;;;;;;;;;;18.53;77.45;100723.47;4985433;28;1456;-85
2022/08/24 03:14:43;;;;;;;;;;;;;;;18.38;78.26;100721.19;4989246;28;1497;-85
2022/08/24 03:17:08;;;;;;;;;;;;;;;18.41;78.78;100718.59;4989729;28;1549;-85
2022/08/24 03:19:33;;;;;;;;;;;;;;;18.28;78.66;100721.53;4996340;28;1433;-85
2022/08/24 03:21:59;;;;;;;;;;;;;;;18.34;78.65;100721.03;4994498;28;1887;-85
2022/08/24 03:24:24;;;;;;;;;;;;;;;18.33;78.66;100721.34;4984434;28;1416;-85
2022/08/24 03:26:49;;;;;;;;;;;;;;;18.39;78.64;100722.81;4996296;28;1278;-85
2022/08/24 03:29:14;;;;;;;;;;;;;;;18.18;79.15;100719.09;4983274;28;1547;-85
2022/08/24 03:31:39;;;;;;;;;;;;;;;18.34;78.67;100711.91;4990209;28;1758;-85
2022/08/24 03:34:05;;;;;;;;;;;;;;;18.29;77.26;100714.84;4981277;28;1481;-85
2022/08/24 03:36:30;;;;;;;;;;;;;;;18.20;78.62;100712.09;4977496;28;1720;-85
2022/08/24 03:38:55;;;;;;;;;;;;;;;18.23;78.17;100716.13;4986304;28;1605;-85
2022/08/24 03:41:20;;;;;;;;;;;;;;;18.15;78.58;100721.38;4986777;28;1516;-85
2022/08/24 03:43:45;;;;;;;;;;;;;;;18.05;78.96;100721.69;4978594;28;1867;-85
2022/08/24 03:46:11;;;;;;;;;;;;;;;18.17;78.90;100714.69;4996606;28;1173;-86
2022/08/24 03:48:38;;;;;;;;;;;;;;;18.12;77.88;100718.41;4987977;28;1406;-85
2022/08/24 03:51:04;;;;;;;;;;;;;;;17.96;78.34;100709.78;4995087;28;1371;-85
2022/08/24 03:53:29;;;;;;;;;;;;;;;17.94;78.88;100714.03;5004639;28;1896;-85
2022/08/24 03:55:54;;;;;;;;;;;;;;;18.01;79.26;100720.72;4992609;28;1378;-85
2022/08/24 03:58:19;;;;;;;;;;;;;;;17.98;78.41;100717.75;4977554;28;1275;-85
2022/08/24 04:00:44;;;;;;;;;;;;;;;17.98;77.80;100723.31;4998174;28;1754;-85
2022/08/24 04:03:10;;;;;;;;;;;;;;;17.76;77.65;100716.78;4989517;28;1968;-86
2022/08/24 04:05:35;;;;;;;;;;;;;;;17.73;78.13;100722.13;4982579;28;1465;-85
2022/08/24 04:08:01;;;;;;;;;;;;;;;17.77;78.36;100720.38;4981102;28;1478;-86
2022/08/24 04:10:27;;;;;;;;;;;;;;;17.68;78.03;100714.81;4981530;28;1457;-86
2022/08/24 04:12:53;;;;;;;;;;;;;;;17.70;79.43;100718.06;4964960;28;1841;-85
2022/08/24 04:15:18;;;;;;;;;;;;;;;17.36;79.14;100724.28;4974685;28;1359;-86
2022/08/24 04:17:43;;;;;;;;;;;;;;;17.39;80.12;100720.06;5000689;28;1469;-85
2022/08/24 04:20:09;;;;;;;;;;;;;;;17.27;79.22;100719.84;4997029;28;1178;-86
2022/08/24 04:22:35;;;;;;;;;;;;;;;17.53;79.67;100712.44;4997755;28;1878;-86
2022/08/24 04:25:00;;;;;;;;;;;;;;;17.56;79.17;100714.56;4986543;28;1455;-86
2022/08/24 04:27:25;;;;;;;;;;;;;;;17.27;80.92;100717.91;4967823;28;1598;-86
2022/08/24 04:29:50;;;;;;;;;;;;;;;17.28;80.96;100721.47;4981662;28;1751;-86
2022/08/24 04:32:16;;;;;;;;;;;;;;;17.18;81.15;100717.03;4988222;28;1426;-87
2022/08/24 04:34:42;;;;;;;;;;;;;;;17.36;79.53;100717.94;4974753;28;1664;-86
2022/08/24 04:37:07;;;;;;;;;;;;;;;17.02;81.46;100719.41;4970510;28;1422;-87
2022/08/24 04:39:32;;;;;;;;;;;;;;;17.08;80.42;100717.34;4982751;28;1162;-86
2022/08/24 04:41:57;;;;;;;;;;;;;;;16.86;81.70;100722.91;4976799;28;1969;-86
2022/08/24 04:44:22;;;;;;;;;;;;;;;17.13;80.34;100717.19;4975406;28;1222;-88
2022/08/24 04:46:48;;;;;;;;;;;;;;;17.22;80.50;100722.75;4975430;28;1009;-88
2022/08/24 04:49:13;;;;;;;;;;;;;;;17.39;79.58;100718.13;4991186;28;1229;-88
2022/08/24 04:51:38;;;;;;;;;;;;;;;17.27;80.41;100728.16;4975039;28;1456;-87
2022/08/24 04:54:05;;;;;;;;;;;;;;;17.09;79.92;100730.03;4976315;28;898;-88
2022/08/24 04:56:30;;;;;;;;;;;;;;;16.93;80.72;100732.38;4975056;28;1221;-87
2022/08/24 04:58:55;;;;;;;;;;;;;;;17.03;80.40;100736.81;4988293;28;1474;-87
2022/08/24 05:01:22;;;;;;;;;;;;;;;17.18;80.55;100728.09;4994103;28;1355;-87
2022/08/24 05:03:49;;;;;;;;;;;;;;;16.89;81.18;100736.94;4994252;28;1899;-88
2022/08/24 05:06:15;;;;;;;;;;;;;;;17.20;80.91;100731.38;4995478;28;830;-87
2022/08/24 05:08:40;;;;;;;;;;;;;;;17.06;80.27;100735.38;4994371;28;1259;-87
2022/08/24 05:11:07;;;;;;;;;;;;;;;16.97;81.33;100729.81;4979101;28;1511;-88
2022/08/24 05:13:32;;;;;;;;;;;;;;;17.24;79.86;100737.91;4974897;28;1316;-87
2022/08/24 05:15:57;;;;;;;;;;;;;;;17.16;79.83;100740.66;4974775;28;970;-87
2022/08/24 05:18:22;;;;;;;;;;;;;;;17.02;80.10;100741.53;4975784;28;898;-87
2022/08/24 05:20:47;;;;;;;;;;;;;;;17.12;80.13;100737.69;4986720;28;1263;-87
2022/08/24 05:23:13;;;;;;;;;;;;;;;17.14;81.37;100743.72;4992847;28;1875;-87
2022/08/24 05:25:39;;;;;;;;;;;;;;;17.31;81.02;100737.44;4964962;28;1432;-87
2022/08/24 05:28:04;;;;;;;;;;;;;;;17.40;80.76;100741.88;4976375;28;1278;-87
2022/08/24 05:30:29;;;;;;;;;;;;;;;17.53;80.31;100739.31;4992415;28;1166;-87
2022/08/24 05:32:54;;;;;;;;;;;;;;;17.48;81.32;100748.59;4994778;28;1192;-87
2022/08/24 05:35:20;;;;;;;;;;;;;;;17.52;79.93;100749.59;4982269;28;1408;-87
2022/08/24 05:37:45;;;;;;;;;;;;;;;17.54;81.19;100747.28;4972850;28;1312;-87
2022/08/24 05:40:12;;;;;;;;;;;;;;;17.61;81.21;100753.16;4990737;28;1497;-88
2022/08/24 05:42:38;;;;;;;;;;;;;;;17.72;80.98;100749.00;4963502;28;1961;-88
2022/08/24 05:45:04;;;;;;;;;;;;;;;17.61;80.85;100747.63;4956041;28;1589;-87
2022/08/24 05:47:29;;;;;;;;;;;;;;;17.50;81.66;100751.84;4954635;28;1468;-88
2022/08/24 05:49:54;;;;;;;;;;;;;;;17.64;82.39;100746.22;4956047;29;1044;-88
2022/08/24 05:52:21;;;;;;;;;;;;;;;17.54;81.17;100747.28;4961206;28;1485;-87
2022/08/24 05:54:50;;;;;;;;;;;;;;;17.72;81.53;100748.19;4955965;28;865;-88
2022/08/24 05:57:15;;;;;;;;;;;;;;;17.74;81.48;100743.97;4979655;28;1675;-87
2022/08/24 05:59:40;;;;;;;;;;;;;;;17.87;82.33;100749.66;4973685;28;1547;-87
2022/08/24 06:02:06;;;;;;;;;;;;;;;17.88;82.64;100749.34;4974446;28;1977;-87
2022/08/24 06:04:31;;;;;;;;;;;;;;;17.66;84.46;100755.84;4958923;28;1635;-88
2022/08/24 06:06:56;;;;;;;;;;;;;;;17.66;84.56;100758.59;4954425;28;1403;-87
2022/08/24 06:09:21;;;;;;;;;;;;;;;17.71;83.94;100747.38;4963869;28;1659;-87
2022/08/24 06:11:47;;;;;;;;;;;;;;;17.78;84.65;100755.19;4979203;28;1824;-87
2022/08/24 06:14:13;;;;;;;;;;;;;;;17.89;84.92;100758.47;4960129;28;1784;-88
2022/08/24 06:16:40;;;;;;;;;;;;;;;17.95;85.45;100754.44;4973697;28;1575;-87
2022/08/24 06:19:07;;;;;;;;;;;;;;;18.06;85.22;100755.75;4989554;28;945;-87
2022/08/24 06:21:32;;;;;;;;;;;;;;;18.04;85.13;100760.78;4993126;28;1289;-88
2022/08/24 06:23:58;;;;;;;;;;;;;;;18.08;84.24;100768.13;4993250;28;1878;-88
2022/08/24 06:29:07;;;;;;;;;;;;;;;18.22;84.28;100769.94;4978826;28;1341;-87
2022/08/24 06:31:36;;;;;;;;;;;;;;;18.29;82.55;100773.06;4990749;28;1334;-87
2022/08/24 06:34:01;;;;;;;;;;;;;;;18.36;83.32;100773.38;4968927;28;1376;-87
2022/08/24 06:36:26;;;;;;;;;;;;;;;18.41;83.13;100773.19;4957471;29;1210;-87
2022/08/24 06:38:51;;;;;;;;;;;;;;;18.48;82.48;100771.56;4968045;28;1664;-88
2022/08/24 06:41:17;;;;;;;;;;;;;;;18.53;82.12;100779.72;4998371;28;1180;-88
2022/08/24 06:43:42;;;;;;;;;;;;;;;18.61;82.34;100780.91;4992216;28;1915;-87
2022/08/24 06:46:07;;;;;;;;;;;;;;;18.66;82.35;100777.13;4969323;28;1209;-87
2022/08/24 06:48:33;;;;;;;;;;;;;;;18.68;80.98;100786.75;4985416;28;1623;-87
2022/08/24 06:50:58;;;;;;;;;;;;;;;18.73;82.00;100785.75;4996832;28;1338;-87
2022/08/24 06:53:23;;;;;;;;;;;;;;;18.78;81.52;100785.59;4996486;28;1280;-87
2022/08/24 06:55:50;;;;;;;;;;;;;;;18.84;81.44;100787.06;4985761;28;1426;-87
2022/08/24 06:58:15;;;;;;;;;;;;;;;18.90;80.09;100788.50;4985362;28;1812;-87
2022/08/24 07:00:40;;;;;;;;;;;;;;;18.92;81.10;100793.72;4978660;28;1547;-87
2022/08/24 07:03:06;;;;;;;;;;;;;;;18.93;80.41;100782.31;4982654;28;1899;-87
2022/08/24 07:05:31;;;;;;;;;;;;;;;18.97;79.87;100791.59;4980196;28;1276;-87
2022/08/24 07:07:58;;;;;;;;;;;;;;;19.01;79.78;100787.03;4997740;28;865;-87
2022/08/24 07:10:23;;;;;;;;;;;;;;;19.04;78.66;100791.94;4996533;28;1281;-87
2022/08/24 07:12:48;;;;;;;;;;;;;;;19.09;78.86;100790.91;4980933;28;1473;-87
2022/08/24 07:15:13;;;;;;;;;;;;;;;19.13;79.96;100792.72;4979049;28;1301;-88
2022/08/24 07:17:38;;;;;;;;;;;;;;;19.20;78.52;100797.75;4996286;28;1235;-87
2022/08/24 07:20:04;;;;;;;;;;;;;;;19.23;78.33;100795.13;4995955;28;1451;-87
2022/08/24 07:22:29;;;;;;;;;;;;;;;19.27;79.47;100795.28;4976260;28;1922;-87
2022/08/24 07:24:54;;;;;;;;;;;;;;;19.30;78.29;100794.63;4976463;28;1209;-87
2022/08/24 07:27:19;;;;;;;;;;;;;;;19.36;77.98;100795.25;4976561;28;1051;-87
2022/08/24 07:29:45;;;;;;;;;;;;;;;19.37;79.47;100800.47;4963311;28;1746;-87
2022/08/24 07:32:11;;;;;;;;;;;;;;;19.39;78.47;100806.50;4970321;28;1493;-88
2022/08/24 07:34:36;;;;;;;;;;;;;;;19.46;77.75;100803.22;4982332;28;1096;-87
2022/08/24 07:37:02;;;;;;;;;;;;;;;19.47;78.87;100802.91;4967299;28;1031;-87
2022/08/24 07:39:27;;;;;;;;;;;;;;;19.49;78.21;100811.72;4957220;28;1747;-87
2022/08/24 07:41:52;;;;;;;;;;;;;;;19.54;77.47;100819.06;4956987;29;1945;-87
2022/08/24 07:44:18;;;;;;;;;;;;;;;19.57;77.86;100813.63;4958298;29;1052;-86
2022/08/24 07:46:43;;;;;;;;;;;;;;;19.62;77.14;100809.88;4956770;28;1727;-86
2022/08/24 07:49:10;;;;;;;;;;;;;;;19.69;77.93;100807.38;4976276;28;1305;-87
2022/08/24 07:51:36;;;;;;;;;;;;;;;19.70;77.75;100803.47;4975825;28;1718;-86
2022/08/24 07:54:03;;;;;;;;;;;;;;;19.77;77.75;100800.16;4977109;28;1408;-88
2022/08/24 07:56:29;;;;;;;;;;;;;;;19.84;76.94;100811.56;4972757;28;1237;-87
2022/08/24 07:58:54;;;;;;;;;;;;;;;19.87;78.11;100808.13;4972575;28;1911;-86
2022/08/24 08:01:20;;;;;;;;;;;;;;;19.92;78.89;100814.28;4957914;29;1375;-87
2022/08/24 08:03:45;;;;;;;;;;;;;;;19.98;78.29;100806.59;4956390;28;1894;-87
2022/08/24 08:06:11;;;;;;;;;;;;;;;20.02;78.88;100818.66;4956547;29;1288;-87
2022/08/24 08:08:37;;;;;;;;;;;;;;;20.07;77.82;100824.03;4957889;28;1773;-88
2022/08/24 08:11:02;;;;;;;;;;;;;;;20.11;76.94;100813.03;4957607;28;1285;-87
2022/08/24 08:13:28;;;;;;;;;;;;;;;20.16;76.85;100819.19;4974047;28;1213;-87
2022/08/24 08:15:54;;;;;;;;;;;;;;;20.20;76.84;100813.78;4975895;28;1659;-86
2022/08/24 08:18:19;;;;;;;;;;;;;;;20.24;76.72;100814.75;4975991;28;1296;-86
2022/08/24 08:20:44;;;;;;;;;;;;;;;20.29;76.47;100814.53;4975344;28;1640;-87
2022/08/24 08:26:00;;;;;;;;;;;;;;;20.41;75.69;100814.66;4956660;28;1402;-87
2022/08/24 08:28:26;;;;;;;;;;;;;;;20.45;75.27;100807.25;4975876;28;1333;-87
2022/08/24 08:30:52;;;;;;;;;;;;;;;20.54;74.51;100804.41;4965317;28;1489;-87
2022/08/24 08:33:17;;;;;;;;;;;;;;;20.59;73.28;100799.44;4975009;28;1459;-86
2022/08/24 08:35:43;;;;;;;;;;;;;;;20.68;73.31;100805.75;4979257;28;1270;-88
2022/08/24 08:38:09;;;;;;;;;;;;;;;20.70;72.42;100803.44;4969410;28;1558;-87
2022/08/24 08:40:34;;;;;;;;;;;;;;;20.78;71.70;100808.09;4987558;28;1203;-86
2022/08/24 08:43:03;;;;;;;;;;;;;;;20.80;71.66;100793.88;4987782;28;1890;-87
2022/08/24 08:45:32;;;;;;;;;;;;;;;20.83;72.63;100797.94;4990071;28;1460;-87
2022/08/24 08:48:00;;;;;;;;;;;;;;;20.84;72.10;100794.78;4971423;28;1333;-87
2022/08/24 08:50:32;;;;;;;;;;;;;;;20.89;72.57;100794.59;4986042;28;1370;-87
2022/08/24 08:53:26;;;;;;;;;;;;;;;20.91;71.56;100791.47;4972692;28;1469;-88
2022/08/24 08:55:51;;;;;;;;;;;;;;;20.94;70.63;100794.38;4967792;28;1297;-87
2022/08/24 08:58:31;;;;;;;;;;;;;;;20.99;69.84;100796.13;4994936;28;790;-87
2022/08/24 09:01:08;;;;;;;;;;;;;;;21.06;70.16;100790.81;4987216;28;1234;-87
2022/08/24 09:03:39;;;;;;;;;;;;;;;21.11;70.37;100793.38;4972119;28;1871;-88
2022/08/24 09:06:29;;;;;;;;;;;;;;;21.17;71.02;100786.47;4955342;29;1198;-87
2022/08/24 09:09:14;;;;;;;;;;;;;;;21.20;70.66;100785.75;4955203;28;1662;-88
2022/08/24 09:12:02;;;;;;;;;;;;;;;21.31;69.37;100781.38;4979623;28;1313;-88
2022/08/24 09:14:46;;;;;;;;;;;;;;;21.34;69.24;100777.91;4961990;28;1409;-87
2022/08/24 09:17:21;;;;;;;;;;;;;;;21.38;69.21;100775.25;4958346;28;1390;-87
2022/08/24 09:20:07;;;;;;;;;;;;;;;21.42;67.32;100770.63;4971438;28;1199;-87
2022/08/24 09:22:40;;;;;;;;;;;;;;;21.47;67.05;100770.38;4956381;28;1969;-87
2022/08/24 09:25:08;;;;;;;;;;;;;;;21.46;67.75;100777.09;4972219;28;1554;-87
2022/08/24 09:27:54;;;;;;;;;;;;;;;21.51;67.70;100777.72;4966322;28;1217;-87
2022/08/24 09:30:22;;;;;;;;;;;;;;;21.52;66.77;100779.31;4987982;28;1427;-88
2022/08/24 09:32:57;;;;;;;;;;;;;;;21.66;67.35;100769.81;4968620;28;1451;-88
2022/08/24 09:35:34;;;;;;;;;;;;;;;21.62;67.80;100766.06;4954783;28;1437;-88
2022/08/24 09:38:05;;;;;;;;;;;;;;;21.70;68.32;100770.72;4961894;28;1388;-84
2022/08/24 09:40:33;;;;;;;;;;;;;;;21.73;68.34;100764.47;4965485;28;1420;-85
2022/08/24 09:43:17;;;;;;;;;;;;;;;21.77;68.37;100763.44;4964250;28;1965;-87
2022/08/24 09:46:01;;;;;;;;;;;;;;;21.82;67.23;100765.97;4955456;28;1307;-88
2022/08/24 09:49:05;;;;;;;;;;;;;;;21.82;67.24;100765.97;4957871;28;1745;-88
2022/08/24 09:51:30;;;;;;;;;;;;;;;21.88;66.41;100758.16;4953852;29;1295;-88
2022/08/24 09:54:14;;;;;;;;;;;;;;;22.00;64.03;100763.78;4937597;29;1317;-88
2022/08/24 09:56:59;;;;;;;;;;;;;;;21.96;66.24;100762.81;4954987;28;1550;-89
2022/08/24 09:59:47;;;;;;;;;;;;;;;22.09;65.72;100763.63;4962798;28;1461;-87
2022/08/24 10:02:26;;;;;;;;;;;;;;;22.06;67.02;100762.34;4958120;28;1902;-88
2022/08/24 10:05:01;;;;;;;;;;;;;;;22.15;65.98;100760.25;4986562;28;1266;-88
2022/08/24 10:07:27;;;;;;;;;;;;;;;22.14;66.66;100758.63;4992929;28;1244;-88
2022/08/24 10:09:59;;;;;;;;;;;;;;;22.18;65.76;100758.75;4992048;28;961;-88
2022/08/24 10:12:32;;;;;;;;;;;;;;;22.17;65.15;100748.75;4964626;28;1433;-87
2022/08/24 10:15:07;;;;;;;;;;;;;;;22.22;65.46;100748.50;4980085;28;1403;-87
2022/08/24 10:17:40;;;;;;;;;;;;;;;22.33;65.62;100749.63;4973923;28;1339;-87
2022/08/24 10:20:05;;;;;;;;;;;;;;;22.40;64.08;100747.03;4974188;28;1280;-89
2022/08/24 10:22:40;;;;;;;;;;;;;;;22.54;64.52;100739.06;4974015;28;1902;-89
2022/08/24 10:25:16;;;;;;;;;;;;;;;22.64;63.41;100741.38;4974590;28;1296;-89
2022/08/24 10:27:48;;;;;;;;;;;;;;;22.71;62.05;100732.41;4969752;28;1321;-90
2022/08/24 10:30:24;;;;;;;;;;;;;;;22.77;63.25;100735.75;4955066;29;1339;-89
2022/08/24 10:32:55;;;;;;;;;;;;;;;22.79;62.40;100736.22;4954871;29;1198;-88
2022/08/24 10:35:24;;;;;;;;;;;;;;;22.81;64.86;100734.69;4988444;28;1368;-88
2022/08/24 10:39:39;;;;;;;;;;;;;;;22.85;63.78;100730.03;4990615;28;1221;-88
2022/08/24 10:40:48;;;;;;;;;;;;;;;22.94;60.36;100722.28;4985245;28;1534;-88
2022/08/24 10:43:34;;;;;;;;;;;;;;;22.98;60.57;100725.97;4957053;28;1977;-87
2022/08/24 10:46:10;;;;;;;;;;;;;;;22.98;60.85;100728.75;4954407;28;1342;-86
2022/08/24 10:48:35;;;;;;;;;;;;;;;23.00;61.16;100723.63;4963516;28;1267;-86
2022/08/24 10:51:19;;;;;;;;;;;;;;;23.07;61.18;100723.00;4956206;28;1415;-86
2022/08/24 10:53:49;;;;;;;;;;;;;;;23.09;62.12;100723.47;4962025;28;1466;-86
2022/08/24 10:56:16;;;;;;;;;;;;;;;23.18;61.55;100717.72;4982196;28;1011;-86
2022/08/24 10:58:44;;;;;;;;;;;;;;;23.25;61.73;100723.47;4969450;28;1279;-86
2022/08/24 11:01:17;;;;;;;;;;;;;;;23.29;61.24;100718.78;4967235;28;1371;-86
2022/08/24 11:03:49;;;;;;;;;;;;;;;23.33;60.04;100708.50;4970112;28;1903;-86
2022/08/24 11:06:15;;;;;;;;;;;;;;;23.42;61.60;100720.31;4970974;28;1371;-87
2022/08/24 11:08:49;;;;;;;;;;;;;;;23.40;62.82;100714.25;4970100;28;1279;-88
2022/08/24 11:11:22;;;;;;;;;;;;;;;23.45;59.50;100716.81;4989178;28;1284;-87
2022/08/24 11:14:03;;;;;;;;;;;;;;;23.56;58.98;100714.31;4964733;28;1439;-89
2022/08/24 11:16:34;;;;;;;;;;;;;;;23.51;58.66;100712.56;4954452;29;1360;-89
2022/08/24 11:19:01;;;;;;;;;;;;;;;23.58;57.17;100709.13;4984143;28;1342;-89
2022/08/24 11:21:39;;;;;;;;;;;;;;;23.64;58.54;100708.53;4995952;28;1449;-88
2022/08/24 11:24:07;;;;;;;;;;;;;;;23.69;58.21;100707.41;4998338;28;1887;-88
2022/08/24 11:26:44;;;;;;;;;;;;;;;23.73;56.82;100703.50;4996597;28;1343;-89
2022/08/24 11:29:09;;;;;;;;;;;;;;;23.77;59.02;100710.00;5000281;28;1438;-88
2022/08/24 11:31:38;;;;;;;;;;;;;;;23.76;59.17;100708.38;4996077;28;1189;-87
2022/08/24 11:34:06;;;;;;;;;;;;;;;23.88;57.45;100701.88;4995741;28;1256;-87
2022/08/24 11:36:35;;;;;;;;;;;;;;;23.87;57.25;100700.25;4980033;28;1409;-88
2022/08/24 11:39:09;;;;;;;;;;;;;;;23.88;58.00;100695.47;4987767;28;1229;-87
2022/08/24 11:41:57;;;;;;;;;;;;;;;23.95;57.68;100693.63;4996969;28;1191;-87
2022/08/24 11:44:33;;;;;;;;;;;;;;;23.98;58.00;100692.09;4984326;28;1591;-87
2022/08/24 11:47:02;;;;;;;;;;;;;;;23.98;58.14;100684.53;4988952;28;1185;-87
2022/08/24 11:49:44;;;;;;;;;;;;;;;24.02;59.27;100681.78;4995808;28;1174;-86
2022/08/24 11:52:14;;;;;;;;;;;;;;;24.08;58.23;100678.31;4995383;28;1398;-86
2022/08/24 11:55:02;;;;;;;;;;;;;;;24.12;56.37;100676.44;4995519;28;1216;-87
2022/08/24 11:57:36;;;;;;;;;;;;;;;24.26;55.65;100675.94;4997140;28;1036;-88
2022/08/24 12:00:14;;;;;;;;;;;;;;;24.31;55.97;100675.66;4996465;28;1762;-89
2022/08/24 12:02:53;;;;;;;;;;;;;;;24.33;56.90;100676.06;4987168;28;1962;-88
2022/08/24 12:05:24;;;;;;;;;;;;;;;24.33;56.99;100673.28;4978665;28;1244;-88
2022/08/24 12:08:02;;;;;;;;;;;;;;;24.46;56.06;100676.75;4975031;28;1748;-90
2022/08/24 12:10:30;;;;;;;;;;;;;;;24.48;54.93;100680.78;4986933;28;1340;-89
2022/08/24 12:13:04;;;;;;;;;;;;;;;24.70;54.62;100676.41;4982232;28;1481;-89
2022/08/24 12:15:44;;;;;;;;;;;;;;;24.70;55.20;100678.38;4976567;28;1333;-88
2022/08/24 12:18:28;;;;;;;;;;;;;;;24.69;55.42;100685.16;4977167;28;1198;-88
2022/08/24 12:20:55;;;;;;;;;;;;;;;24.71;55.77;100675.22;4958715;28;1178;-90
2022/08/24 12:23:26;;;;;;;;;;;;;;;24.82;55.50;100672.63;4958777;28;1969;-89
2022/08/24 12:26:01;;;;;;;;;;;;;;;24.92;55.22;100677.66;4966513;28;1517;-89
2022/08/24 12:28:30;;;;;;;;;;;;;;;24.88;54.96;100682.31;4975626;28;1368;-89
2022/08/24 12:30:57;;;;;;;;;;;;;;;24.87;54.70;100684.31;4967984;28;1394;-89
2022/08/24 12:33:27;;;;;;;;;;;;;;;24.94;53.34;100677.25;4994582;28;1299;-90
2022/08/24 12:35:56;;;;;;;;;;;;;;;25.07;52.66;100678.69;4995990;28;1364;-89
2022/08/24 12:38:21;;;;;;;;;;;;;;;25.18;51.59;100686.06;4997269;28;1000;-90
2022/08/24 12:41:05;;;;;;;;;;;;;;;25.34;50.76;100676.75;4991424;28;1320;-90
2022/08/24 12:43:34;;;;;;;;;;;;;;;25.39;50.54;100679.22;4976102;28;1902;-88
2022/08/24 12:46:00;;;;;;;;;;;;;;;25.39;51.15;100673.59;4968950;28;1257;-88
2022/08/24 12:48:29;;;;;;;;;;;;;;;25.38;52.46;100669.19;4957322;28;1597;-88
2022/08/24 12:51:14;;;;;;;;;;;;;;;25.45;53.03;100672.91;4983313;28;1323;-88
2022/08/24 12:54:03;;;;;;;;;;;;;;;25.52;53.48;100675.03;4996477;28;1111;-88
2022/08/24 12:56:38;;;;;;;;;;;;;;;25.53;52.37;100669.03;4998065;28;1192;-88
2022/08/24 12:59:16;;;;;;;;;;;;;;;25.65;52.74;100676.44;5011273;28;798;-89
2022/08/24 13:02:03;;;;;;;;;;;;;;;25.80;52.73;100671.84;5009734;28;1390;-88
2022/08/24 13:04:43;;;;;;;;;;;;;;;25.84;51.98;100672.72;4998158;28;1361;-88